Weather at Pegaso Club 2000

Public forecast

Using degrees Celsius for public forecast. Weather courtesy of forecast.io.

Closest aviation weather report (METAR) to Pegaso Club 2000

Report is more than 6 hours old.

Closest report is Latina Air Base, 15.5 nm (28.7 km) NW.

2024/04/17 17:55 (retrieved 8 hours ago)

LIRL 171755Z 33007KT 9999 FEW025 16/03 Q1003

Closest aviation forecast (TAF) to Pegaso Club 2000

Forecast is more than 6 hours old.

Closest forecast is Foggia "Gino Lisa" Airport, 107.6 nm (199.2 km) E.

2024/04/17 18:00 Ammendment (retrieved 8 hours ago)

TAF AMD LIBF 172110Z 1718/1818 CNL